Time;durP1;ratioP1;P1;durP2;ratioP2;P2;SDS_P1;SDS_P2;PMS_P1;PMS_P2;Temp;Humidity;BMP_temperature;BMP_pressure;BME280_temperature;BME280_humidity;BME280_pressure;Samples;Min_cycle;Max_cycle;Signal;HPM_P1;HPM_P2
2021/04/25 00:06:47;;;;;;;4.03;1.30;;;11.20;32.80;;;;;;2252451;60;21051;-80
2021/04/25 00:37:13;;;;;;;4.18;1.40;;;11.00;33.30;;;;;;2264654;60;21548;-80
2021/04/25 00:39:54;;;;;;;2.15;0.80;;;10.90;33.70;;;;;;2291393;60;21109;-81
2021/04/25 00:43:39;;;;;;;;;;;;;;;;;;;;;
2021/04/25 00:46:21;;;;;;;5.90;3.03;;;10.50;34.00;;;;;;2397991;57;21100;-80
2021/04/25 00:49:05;;;;;;;8.60;5.43;;;10.40;33.40;;;;;;2191905;58;20951;-81
2021/04/25 00:51:41;;;;;;;13.80;7.43;;;10.40;33.70;;;;;;2402474;56;21550;-80
2021/04/25 00:54:16;;;;;;;13.35;7.97;;;10.30;34.00;;;;;;2400098;56;21173;-79
2021/04/25 00:56:45;;;;;;;11.35;6.07;;;10.30;34.30;;;;;;2378635;57;21664;-81
2021/04/25 00:59:30;;;;;;;8.15;4.45;;;10.20;34.20;;;;;;2400788;56;21035;-80
2021/04/25 01:01:59;;;;;;;6.12;3.12;;;10.20;34.40;;;;;;2191213;58;21060;-80
2021/04/25 01:04:26;;;;;;;6.65;2.85;;;10.10;34.30;;;;;;2191797;58;21019;-80
2021/04/25 01:06:52;;;;;;;7.03;2.83;;;10.10;34.50;;;;;;2403572;57;21103;-81
2021/04/25 01:09:24;;;;;;;3.92;2.22;;;10.10;34.80;;;;;;2181104;58;21002;-80
2021/04/25 01:11:51;;;;;;;4.62;1.60;;;10.00;34.90;;;;;;2191984;58;20971;-81
2021/04/25 01:14:18;;;;;;;4.05;1.70;;;10.00;35.00;;;;;;2186431;58;21050;-81
2021/04/25 01:16:44;;;;;;;3.15;1.42;;;10.00;35.00;;;;;;2401988;57;21666;-80
2021/04/25 01:19:11;;;;;;;3.80;1.48;;;9.90;36.00;;;;;;2402987;57;20962;-80
2021/04/25 01:21:37;;;;;;;3.90;1.40;;;9.90;36.20;;;;;;2189356;58;21050;-80
2021/04/25 01:24:06;;;;;;;4.87;1.40;;;9.90;36.30;;;;;;2403227;57;20967;-80
2021/04/25 01:26:33;;;;;;;2.53;1.25;;;9.80;36.40;;;;;;2189808;58;21059;-80
2021/04/25 01:28:59;;;;;;;4.95;1.50;;;9.80;36.30;;;;;;2193634;58;21006;-80
2021/04/25 01:31:28;;;;;;;3.40;1.48;;;9.80;36.30;;;;;;2402586;57;21015;-80
2021/04/25 01:33:54;;;;;;;2.40;1.08;;;9.70;36.30;;;;;;2193819;58;21063;-80
2021/04/25 01:36:21;;;;;;;2.67;1.15;;;9.70;36.40;;;;;;2403159;57;21820;-79
2021/04/25 01:38:47;;;;;;;3.50;1.45;;;9.60;36.40;;;;;;2403469;57;20987;-80
2021/04/25 01:41:13;;;;;;;2.92;1.50;;;9.60;36.60;;;;;;2403381;57;21019;-80
2021/04/25 01:43:40;;;;;;;3.15;1.40;;;9.50;36.60;;;;;;2403509;57;20946;-80
2021/04/25 01:46:06;;;;;;;4.78;1.25;;;9.50;36.70;;;;;;2192917;58;21085;-80
2021/04/25 01:48:33;;;;;;;3.25;1.40;;;9.40;36.70;;;;;;2195498;58;21601;-80
2021/04/25 01:50:59;;;;;;;3.40;1.60;;;9.40;36.80;;;;;;2384142;57;21006;-80
2021/04/25 01:53:25;;;;;;;3.75;1.65;;;9.40;36.90;;;;;;2402379;57;21015;-80
2021/04/25 01:55:51;;;;;;;3.70;1.45;;;9.30;36.90;;;;;;2188824;58;20962;-81
2021/04/25 01:58:18;;;;;;;3.50;1.62;;;9.30;37.00;;;;;;2402609;57;21023;-80
2021/04/25 02:00:45;;;;;;;4.95;1.60;;;9.30;37.20;;;;;;2400524;57;20962;-80
2021/04/25 02:03:12;;;;;;;3.40;1.10;;;9.20;37.30;;;;;;2402835;57;20970;-80
2021/04/25 02:05:38;;;;;;;2.90;1.17;;;9.20;37.40;;;;;;2403172;57;20942;-80
2021/04/25 02:08:05;;;;;;;10.88;5.35;;;9.20;37.40;;;;;;2401284;57;20954;-80
2021/04/25 02:10:31;;;;;;;11.48;5.75;;;9.20;37.50;;;;;;2190201;58;20951;-80
2021/04/25 02:12:58;;;;;;;17.48;8.38;;;9.10;37.60;;;;;;2191674;58;21801;-80
2021/04/25 02:15:24;;;;;;;13.13;7.45;;;9.10;37.80;;;;;;2401983;57;20978;-80
2021/04/25 02:17:50;;;;;;;10.60;5.28;;;9.10;37.90;;;;;;2401837;57;20967;-80
2021/04/25 02:20:19;;;;;;;7.43;4.55;;;9.00;37.80;;;;;;2192343;58;21031;-81
2021/04/25 02:22:45;;;;;;;7.55;3.92;;;9.00;37.90;;;;;;2188429;58;21486;-81
2021/04/25 02:25:13;;;;;;;5.57;2.80;;;8.90;37.90;;;;;;2188980;58;20954;-80
2021/04/25 02:27:39;;;;;;;5.03;2.70;;;8.90;37.90;;;;;;2401737;57;21018;-80
2021/04/25 02:30:10;;;;;;;5.28;2.05;;;8.90;38.00;;;;;;2402622;57;20994;-80
2021/04/25 02:32:36;;;;;;;4.75;1.90;;;8.90;38.10;;;;;;2400585;57;21002;-80
2021/04/25 02:35:04;;;;;;;4.25;2.12;;;8.80;38.00;;;;;;2400110;57;21389;-81
2021/04/25 02:37:31;;;;;;;3.28;1.67;;;8.80;38.10;;;;;;2187912;58;21074;-80
2021/04/25 02:39:58;;;;;;;3.70;1.60;;;8.80;38.30;;;;;;2401782;57;20986;-80
2021/04/25 02:42:24;;;;;;;4.62;1.40;;;8.80;38.40;;;;;;2188320;58;20954;-81
2021/04/25 02:44:50;;;;;;;3.50;1.52;;;8.70;38.30;;;;;;2402684;57;21090;-80
2021/04/25 02:47:16;;;;;;;3.12;1.58;;;8.70;38.40;;;;;;2402085;57;20963;-81
2021/04/25 02:49:43;;;;;;;3.53;1.20;;;8.70;38.50;;;;;;2401017;57;20968;-80
2021/04/25 02:52:09;;;;;;;3.55;1.73;;;8.60;38.40;;;;;;2189249;58;21454;-80
2021/04/25 02:54:37;;;;;;;3.58;1.55;;;8.60;38.40;;;;;;2402558;57;20950;-80
2021/04/25 02:57:04;;;;;;;3.28;1.35;;;8.60;38.60;;;;;;2187789;58;20966;-80
2021/04/25 02:59:30;;;;;;;4.25;1.60;;;8.50;38.50;;;;;;2401826;57;21018;-81
2021/04/25 03:01:56;;;;;;;3.15;1.50;;;8.50;38.60;;;;;;2401852;57;20991;-81
2021/04/25 03:04:23;;;;;;;4.75;1.80;;;8.50;38.70;;;;;;2188957;58;20966;-80
2021/04/25 03:06:49;;;;;;;3.28;1.62;;;8.40;38.70;;;;;;2402235;57;21010;-81
2021/04/25 03:09:15;;;;;;;3.53;1.50;;;8.40;38.70;;;;;;2401495;57;21872;-81
2021/04/25 03:11:41;;;;;;;3.12;1.40;;;8.40;38.90;;;;;;2402308;57;21035;-80
2021/04/25 03:14:08;;;;;;;3.10;1.40;;;8.40;38.90;;;;;;2401802;57;21030;-80
2021/04/25 03:16:34;;;;;;;2.90;1.40;;;8.50;39.00;;;;;;2401753;57;21072;-80
2021/04/25 03:19:01;;;;;;;4.37;1.55;;;8.30;39.00;;;;;;2192186;58;21005;-80
2021/04/25 03:21:27;;;;;;;3.33;1.55;;;8.30;39.00;;;;;;2400335;57;20963;-81
2021/04/25 03:23:53;;;;;;;3.83;1.70;;;8.30;39.20;;;;;;2402318;57;20958;-80
2021/04/25 03:26:19;;;;;;;4.53;1.58;;;8.20;39.30;;;;;;2402158;57;20990;-80
2021/04/25 03:28:46;;;;;;;4.35;1.48;;;8.20;39.40;;;;;;2187779;58;20954;-80
2021/04/25 03:31:12;;;;;;;4.57;1.48;;;8.20;39.40;;;;;;2402141;57;20975;-80
2021/04/25 03:33:39;;;;;;;3.45;1.40;;;8.10;39.40;;;;;;2402667;57;21033;-80
2021/04/25 03:36:05;;;;;;;4.07;1.50;;;8.10;39.50;;;;;;2188796;58;21989;-81
2021/04/25 03:38:31;;;;;;;4.12;1.90;;;8.10;39.60;;;;;;2401960;57;20954;-80
2021/04/25 03:40:57;;;;;;;3.72;1.65;;;8.10;39.80;;;;;;2402500;57;21514;-80
2021/04/25 03:43:24;;;;;;;4.72;2.22;;;8.00;39.70;;;;;;2188853;58;20942;-80
2021/04/25 03:45:50;;;;;;;8.32;4.72;;;8.00;39.80;;;;;;2188601;58;20962;-80
2021/04/25 03:48:16;;;;;;;9.98;4.62;;;8.00;40.00;;;;;;2401909;57;20995;-81
2021/04/25 03:50:42;;;;;;;9.05;5.35;;;7.90;39.90;;;;;;2401686;57;21506;-81
2021/04/25 03:53:08;;;;;;;7.37;4.93;;;7.90;39.90;;;;;;2188372;58;21034;-80
2021/04/25 03:55:35;;;;;;;7.65;3.90;;;7.90;40.00;;;;;;2402717;57;20946;-81
2021/04/25 03:58:01;;;;;;;5.03;2.50;;;7.90;40.10;;;;;;2188897;58;20986;-80
2021/04/25 04:00:28;;;;;;;4.32;2.30;;;7.80;40.00;;;;;;2189047;58;21513;-81
2021/04/25 04:02:54;;;;;;;4.90;1.77;;;7.80;40.00;;;;;;2188920;58;20973;-80
2021/04/25 04:05:20;;;;;;;4.80;1.90;;;7.80;40.00;;;;;;2402354;57;20955;-81
2021/04/25 04:07:47;;;;;;;3.17;1.62;;;7.80;40.10;;;;;;2188940;58;20946;-81
2021/04/25 04:10:13;;;;;;;4.43;1.70;;;7.80;40.20;;;;;;2402344;57;20970;-80
2021/04/25 04:12:39;;;;;;;3.85;1.75;;;7.70;40.10;;;;;;2402345;57;20990;-80
2021/04/25 04:15:06;;;;;;;4.05;1.77;;;7.70;40.20;;;;;;2189230;58;20971;-80
2021/04/25 04:17:33;;;;;;;3.87;1.80;;;7.70;40.30;;;;;;2401163;57;20971;-80
2021/04/25 04:19:59;;;;;;;3.33;1.77;;;7.70;40.30;;;;;;2188514;58;21003;-80
2021/04/25 04:22:25;;;;;;;4.40;1.90;;;7.60;40.30;;;;;;2402132;57;21022;-80
2021/04/25 04:24:52;;;;;;;4.37;1.95;;;7.60;40.30;;;;;;2402815;57;20967;-80
2021/04/25 04:27:18;;;;;;;3.95;1.60;;;7.60;40.40;;;;;;2188317;58;20997;-80
2021/04/25 04:29:44;;;;;;;3.78;1.90;;;7.60;40.70;;;;;;2402169;57;21022;-80
2021/04/25 04:32:11;;;;;;;3.17;1.40;;;7.60;40.70;;;;;;2186912;58;21102;-80
2021/04/25 04:34:37;;;;;;;4.47;1.50;;;7.60;40.80;;;;;;2400377;57;21005;-80
2021/04/25 04:37:04;;;;;;;3.80;1.87;;;7.50;40.80;;;;;;2187688;58;20978;-80
2021/04/25 04:39:30;;;;;;;4.20;2.05;;;7.60;41.00;;;;;;2188796;58;20954;-80
2021/04/25 04:41:56;;;;;;;3.80;1.58;;;7.50;40.90;;;;;;2402039;57;20991;-80
2021/04/25 04:44:23;;;;;;;4.55;2.00;;;7.60;41.20;;;;;;2188601;58;20950;-80
2021/04/25 04:46:50;;;;;;;4.72;1.85;;;7.50;41.20;;;;;;2402716;57;22017;-80
2021/04/25 04:49:16;;;;;;;4.20;1.62;;;7.60;41.40;;;;;;2188934;58;21055;-80
2021/04/25 04:51:42;;;;;;;3.53;1.60;;;7.60;41.40;;;;;;2188861;58;21034;-80
2021/04/25 04:54:09;;;;;;;2.92;1.48;;;7.60;41.50;;;;;;2402695;57;21011;-80
2021/04/25 04:56:35;;;;;;;4.32;1.87;;;7.60;41.60;;;;;;2402868;57;20978;-80
2021/04/25 04:59:04;;;;;;;4.68;1.80;;;7.60;41.70;;;;;;2399277;57;20956;-80
2021/04/25 05:01:30;;;;;;;4.95;1.70;;;7.60;41.70;;;;;;2395209;57;20974;-80
2021/04/25 05:03:56;;;;;;;4.05;2.00;;;7.70;41.80;;;;;;2189032;58;20970;-80
2021/04/25 05:06:22;;;;;;;3.72;1.70;;;7.70;42.00;;;;;;2402569;57;21099;-80
2021/04/25 05:08:49;;;;;;;5.47;2.33;;;7.70;42.10;;;;;;2189278;58;20958;-80
2021/04/25 05:11:15;;;;;;;4.40;2.33;;;7.80;42.30;;;;;;2189301;58;21006;-80
2021/04/25 05:13:41;;;;;;;3.50;1.70;;;7.80;42.30;;;;;;2189295;58;21072;-80
2021/04/25 05:16:07;;;;;;;4.68;2.05;;;7.80;42.30;;;;;;2189236;58;21075;-80
2021/04/25 05:18:33;;;;;;;5.30;2.30;;;7.90;42.50;;;;;;2402197;57;21019;-80
2021/04/25 05:21:00;;;;;;;3.35;1.50;;;7.90;42.50;;;;;;2402603;57;20970;-80
2021/04/25 05:23:26;;;;;;;4.85;1.77;;;8.00;42.60;;;;;;2188942;58;21030;-80
2021/04/25 05:25:52;;;;;;;3.92;1.95;;;8.00;42.60;;;;;;2402113;57;21010;-80
2021/04/25 05:28:18;;;;;;;4.65;1.60;;;8.10;42.80;;;;;;2401887;57;21014;-80
2021/04/25 05:30:45;;;;;;;3.05;1.67;;;8.10;42.80;;;;;;2188737;58;21823;-79
2021/04/25 05:33:11;;;;;;;4.65;1.98;;;8.10;42.80;;;;;;2189088;58;21790;-80
2021/04/25 05:35:38;;;;;;;3.47;1.95;;;8.20;43.00;;;;;;2189685;58;21021;-79
2021/04/25 05:38:05;;;;;;;4.50;2.17;;;8.10;42.90;;;;;;2402214;57;21093;-80
2021/04/25 05:40:31;;;;;;;4.10;2.00;;;8.30;43.10;;;;;;2402260;57;21568;-80
2021/04/25 05:42:57;;;;;;;4.20;2.00;;;8.40;43.20;;;;;;2401939;57;21542;-79
2021/04/25 05:45:23;;;;;;;5.32;2.12;;;8.40;43.30;;;;;;2401132;57;21002;-80
2021/04/25 05:47:54;;;;;;;5.07;2.10;;;8.50;43.40;;;;;;2400866;57;20970;-80
2021/04/25 05:50:20;;;;;;;5.70;2.60;;;8.60;43.70;;;;;;2402096;57;20940;-80
2021/04/25 05:52:47;;;;;;;5.32;3.10;;;8.60;43.60;;;;;;2403095;57;20975;-80
2021/04/25 05:55:14;;;;;;;4.30;2.37;;;8.70;43.70;;;;;;2403254;57;20951;-80
2021/04/25 05:57:40;;;;;;;4.45;2.40;;;8.80;43.80;;;;;;2402804;57;20995;-79
2021/04/25 06:00:07;;;;;;;5.32;2.37;;;8.90;43.80;;;;;;2402361;57;21018;-80
2021/04/25 06:02:33;;;;;;;5.78;2.30;;;8.90;43.80;;;;;;2402821;57;21018;-80
2021/04/25 06:05:00;;;;;;;5.72;2.97;;;9.00;43.80;;;;;;2403673;57;20999;-81
2021/04/25 06:07:26;;;;;;;4.95;2.50;;;9.10;43.80;;;;;;2404085;57;20999;-80
2021/04/25 06:09:52;;;;;;;5.18;2.55;;;9.20;43.80;;;;;;2401223;57;21904;-80
2021/04/25 06:12:19;;;;;;;6.15;2.70;;;9.20;43.70;;;;;;2401450;57;21079;-80
2021/04/25 06:14:45;;;;;;;6.22;2.60;;;9.30;43.90;;;;;;2401812;57;21070;-80
2021/04/25 06:17:14;;;;;;;5.60;2.83;;;9.40;43.90;;;;;;2191246;58;20982;-80
2021/04/25 06:19:56;;;;;;;5.68;2.62;;;9.50;44.00;;;;;;2400834;57;21017;-80
2021/04/25 06:22:36;;;;;;;7.47;2.97;;;9.50;44.30;;;;;;2400819;56;21600;-80
2021/04/25 06:25:41;;;;;;;4.62;2.53;;;9.60;44.00;;;;;;2397563;57;21011;-81
2021/04/25 06:35:49;;;;;;;4.82;2.25;;;9.80;44.50;;;;;;2193378;58;21571;-80
2021/04/25 06:39:03;;;;;;;;;;;;;;;;;;;;;
2021/04/25 07:49:40;;;;;;;6.15;2.42;;;19.40;44.40;;;;;;2461849;53;23872;-66
2021/04/25 07:52:06;;;;;;;4.80;2.30;;;19.40;43.10;;;;;;2330037;53;21394;-67
2021/04/25 07:54:36;;;;;;;6.32;3.10;;;19.40;42.10;;;;;;2553764;53;21427;-68
2021/04/25 07:57:02;;;;;;;6.05;3.22;;;19.40;41.20;;;;;;2329253;53;20968;-67
2021/04/25 07:59:28;;;;;;;5.78;2.87;;;19.30;40.40;;;;;;2321485;53;21004;-68
2021/04/25 08:01:55;;;;;;;5.25;2.92;;;19.20;39.90;;;;;;2560699;53;20953;-67
2021/04/25 08:04:21;;;;;;;7.05;3.35;;;19.10;39.50;;;;;;2296786;54;20997;-70
2021/04/25 08:06:47;;;;;;;6.20;2.97;;;18.90;39.30;;;;;;2314007;53;20990;-70
2021/04/25 08:09:15;;;;;;;5.65;3.50;;;18.80;39.10;;;;;;2308285;54;21076;-67
2021/04/25 08:11:41;;;;;;;5.82;3.30;;;18.50;38.80;;;;;;2320586;53;20980;-67
2021/04/25 08:14:07;;;;;;;8.35;3.33;;;18.40;38.80;;;;;;2433499;53;20956;-70
2021/04/25 08:16:34;;;;;;;6.03;3.33;;;18.30;39.00;;;;;;2308584;53;21921;-67
2021/04/25 08:19:00;;;;;;;6.20;3.40;;;18.30;39.20;;;;;;2321553;53;20961;-67
2021/04/25 08:21:27;;;;;;;7.12;3.80;;;18.20;39.50;;;;;;2343383;53;21001;-67
2021/04/25 08:23:53;;;;;;;7.32;3.42;;;18.30;40.10;;;;;;2349755;53;20970;-69
2021/04/25 08:26:20;;;;;;;6.20;3.37;;;18.40;41.00;;;;;;2336712;54;21009;-69
2021/04/25 08:28:46;;;;;;;6.60;3.65;;;18.60;41.90;;;;;;2343198;54;20961;-68
2021/04/25 08:31:13;;;;;;;5.50;3.12;;;18.90;42.40;;;;;;2338857;53;20959;-68
2021/04/25 08:33:39;;;;;;;5.18;3.03;;;19.20;42.40;;;;;;2332439;53;20929;-71
2021/04/25 08:36:07;;;;;;;4.30;2.58;;;19.50;41.90;;;;;;2334331;53;20967;-70
2021/04/25 08:38:33;;;;;;;5.68;3.15;;;19.70;41.30;;;;;;2343879;53;21005;-70
2021/04/25 08:41:00;;;;;;;5.78;2.92;;;19.90;41.10;;;;;;2346586;53;20969;-68
2021/04/25 08:43:27;;;;;;;6.12;3.25;;;20.10;40.70;;;;;;2324532;53;20991;-68
2021/04/25 08:45:53;;;;;;;7.65;3.25;;;20.20;40.30;;;;;;2356539;53;21067;-70
2021/04/25 08:48:25;;;;;;;6.22;3.05;;;20.30;39.80;;;;;;2608841;52;20927;-67
2021/04/25 08:50:52;;;;;;;6.00;3.50;;;20.40;39.60;;;;;;2591387;52;20979;-67
2021/04/25 08:53:19;;;;;;;6.53;3.45;;;20.50;39.30;;;;;;2371196;53;20931;-69
2021/04/25 08:55:45;;;;;;;6.07;2.92;;;20.50;38.90;;;;;;2372036;53;20963;-71
2021/04/25 08:58:11;;;;;;;5.72;3.28;;;20.50;38.80;;;;;;2372466;53;21007;-67
2021/04/25 09:00:38;;;;;;;5.60;2.95;;;20.60;38.80;;;;;;2370334;53;21022;-67
2021/04/25 09:03:07;;;;;;;5.68;2.78;;;20.60;38.80;;;;;;2622391;52;21013;-71
2021/04/25 09:05:33;;;;;;;4.87;2.85;;;20.70;38.80;;;;;;2369462;53;20969;-68
2021/04/25 09:08:01;;;;;;;4.85;2.95;;;20.80;38.90;;;;;;2369769;53;20965;-70
2021/04/25 09:10:36;;;;;;;7.00;3.37;;;20.80;38.80;;;;;;2351152;53;21861;-68
2021/04/25 09:13:22;;;;;;;7.45;3.90;;;20.90;38.60;;;;;;2368717;53;20984;-67
2021/04/25 09:15:49;;;;;;;7.53;3.10;;;21.00;38.20;;;;;;2369002;53;20943;-67
2021/04/25 09:18:15;;;;;;;6.68;3.15;;;21.10;39.30;;;;;;2369937;53;20923;-67
2021/04/25 09:20:47;;;;;;;6.65;3.03;;;21.30;38.90;;;;;;2371046;53;20940;-70
2021/04/25 09:23:48;;;;;;;4.50;3.17;;;21.50;38.50;;;;;;2371144;53;21487;-70
2021/04/25 09:26:14;;;;;;;5.32;2.97;;;21.60;38.00;;;;;;2437011;52;20963;-69
2021/04/25 09:28:41;;;;;;;6.20;3.17;;;21.70;37.60;;;;;;2370372;53;20979;-69
2021/04/25 09:31:09;;;;;;;5.90;3.30;;;21.80;37.10;;;;;;2370519;53;20916;-73
2021/04/25 09:33:52;;;;;;;6.60;3.50;;;21.80;36.80;;;;;;2370242;53;20954;-72
2021/04/25 09:36:21;;;;;;;5.65;3.30;;;21.70;36.00;;;;;;2370425;53;21025;-67
2021/04/25 09:38:49;;;;;;;6.35;3.62;;;21.70;36.30;;;;;;2370055;53;20932;-68
2021/04/25 09:42:16;;;;;;;5.40;3.25;;;21.60;36.50;;;;;;2348172;53;20915;-74
2021/04/25 09:44:45;;;;;;;6.32;3.10;;;21.60;36.10;;;;;;2372405;53;20933;-70
2021/04/25 09:47:11;;;;;;;6.05;3.15;;;21.70;36.40;;;;;;2368981;53;21087;-71
2021/04/25 09:49:52;;;;;;;5.28;2.75;;;21.70;36.20;;;;;;2370621;53;20931;-70
2021/04/25 09:53:19;;;;;;;7.65;3.90;;;21.70;36.00;;;;;;2370068;53;20967;-69
2021/04/25 09:55:55;;;;;;;5.50;2.90;;;21.80;35.50;;;;;;2370329;53;20935;-71
2021/04/25 09:58:21;;;;;;;8.05;3.30;;;21.70;35.60;;;;;;2371028;53;20908;-73
2021/04/25 10:00:50;;;;;;;5.78;3.37;;;21.60;35.60;;;;;;2370409;53;20984;-71
2021/04/25 10:03:18;;;;;;;6.87;3.45;;;21.60;36.20;;;;;;2370178;53;21007;-69
2021/04/25 10:09:16;;;;;;;6.87;3.35;;;21.60;36.50;;;;;;2370653;53;21067;-68
2021/04/25 10:11:43;;;;;;;5.32;2.87;;;21.80;36.90;;;;;;2369502;53;21010;-71
2021/04/25 10:14:11;;;;;;;7.10;3.37;;;21.90;37.20;;;;;;2370253;53;20975;-72
2021/04/25 10:16:41;;;;;;;9.50;3.20;;;22.10;37.10;;;;;;2370674;53;20944;-69
2021/04/25 10:19:10;;;;;;;5.15;3.25;;;22.30;37.40;;;;;;2370203;53;20920;-68
2021/04/25 10:21:45;;;;;;;8.80;3.28;;;22.50;37.20;;;;;;2348881;53;20999;-68
2021/04/25 10:24:15;;;;;;;5.97;3.37;;;22.60;36.70;;;;;;2370019;53;21038;-70
2021/04/25 10:26:58;;;;;;;7.95;3.58;;;22.80;36.40;;;;;;2370219;53;20951;-73
2021/04/25 10:29:37;;;;;;;5.62;3.08;;;22.90;35.80;;;;;;2369970;53;20988;-71
2021/04/25 10:32:03;;;;;;;6.50;3.47;;;23.00;35.80;;;;;;2316361;54;21016;-71
2021/04/25 10:34:30;;;;;;;5.45;2.92;;;23.10;35.70;;;;;;2316912;53;20993;-71
2021/04/25 10:37:04;;;;;;;5.25;3.10;;;23.10;35.50;;;;;;2345816;53;20925;-70
2021/04/25 10:39:51;;;;;;;7.28;3.17;;;23.20;35.80;;;;;;2298688;54;21429;-73
2021/04/25 10:42:27;;;;;;;7.03;3.67;;;23.30;35.60;;;;;;2328315;53;20949;-71
2021/04/25 10:45:17;;;;;;;6.53;3.37;;;23.50;35.70;;;;;;2319978;53;21564;-69
2021/04/25 10:47:45;;;;;;;5.53;3.08;;;23.70;35.50;;;;;;2328606;53;20969;-71
2021/04/25 10:50:45;;;;;;;9.77;3.80;;;23.80;35.70;;;;;;2328213;53;21284;-71
2021/04/25 10:53:25;;;;;;;6.18;3.05;;;24.10;34.80;;;;;;2566137;53;20941;-72
2021/04/25 11:02:42;;;;;;;6.03;2.92;;;24.20;35.20;;;;;;2299524;54;20980;-67
2021/04/25 11:05:08;;;;;;;5.57;3.00;;;24.30;34.70;;;;;;2328347;53;20953;-70
2021/04/25 11:07:38;;;;;;;6.18;2.83;;;24.20;33.70;;;;;;2328955;53;22017;-71
2021/04/25 11:10:05;;;;;;;6.07;3.00;;;24.20;33.50;;;;;;2322713;53;20959;-73
2021/04/25 11:12:41;;;;;;;5.70;3.33;;;24.10;33.70;;;;;;2322109;53;20962;-71
2021/04/25 11:15:46;;;;;;;5.10;2.75;;;24.10;33.50;;;;;;2331246;54;20944;-72
2021/04/25 11:18:44;;;;;;;5.90;3.05;;;24.10;33.50;;;;;;2349832;53;21025;-72
2021/04/25 11:27:58;;;;;;;5.53;3.03;;;24.10;33.00;;;;;;2351296;53;20954;-70
2021/04/25 11:30:36;;;;;;;4.97;2.22;;;24.00;33.70;;;;;;2360278;54;20983;-72
2021/04/25 11:33:47;;;;;;;4.95;2.83;;;24.00;33.10;;;;;;2362999;54;20967;-71
2021/04/25 11:36:36;;;;;;;4.03;2.45;;;24.00;32.90;;;;;;2575508;53;21943;-69
2021/04/25 11:39:05;;;;;;;6.03;3.08;;;24.00;33.00;;;;;;2601403;53;20909;-71
2021/04/25 11:41:31;;;;;;;5.72;2.92;;;24.10;33.20;;;;;;2326049;54;20936;-69
2021/04/25 11:43:58;;;;;;;6.65;3.62;;;24.10;33.10;;;;;;2333274;55;21028;-71
2021/04/25 11:46:34;;;;;;;6.68;3.12;;;24.10;32.50;;;;;;2353737;54;21002;-74
2021/04/25 11:49:04;;;;;;;5.10;2.50;;;24.10;31.80;;;;;;2335348;53;21056;-72
2021/04/25 11:51:30;;;;;;;7.50;3.37;;;24.00;32.00;;;;;;2565218;53;20976;-71
2021/04/25 11:53:58;;;;;;;6.22;3.10;;;24.00;31.60;;;;;;2573630;53;20928;-69
2021/04/25 11:56:26;;;;;;;5.22;2.70;;;23.90;31.30;;;;;;2334113;53;20927;-71
2021/04/25 11:59:09;;;;;;;4.47;2.45;;;23.80;31.20;;;;;;2551266;53;21802;-68
2021/04/25 12:01:35;;;;;;;4.12;2.37;;;23.80;30.90;;;;;;2317711;54;20958;-69
2021/04/25 12:04:02;;;;;;;5.95;2.67;;;23.70;31.60;;;;;;2333477;53;20960;-69
2021/04/25 12:06:46;;;;;;;5.75;2.42;;;23.70;31.70;;;;;;2355545;53;20947;-70
2021/04/25 12:09:13;;;;;;;6.22;2.95;;;23.70;31.50;;;;;;2339930;53;20941;-68
2021/04/25 12:11:40;;;;;;;4.50;2.42;;;23.70;32.40;;;;;;2350884;53;20958;-69
2021/04/25 12:14:18;;;;;;;6.78;3.10;;;23.80;32.10;;;;;;2341013;53;20984;-68
2021/04/25 12:16:45;;;;;;;4.93;2.72;;;23.90;31.80;;;;;;2360244;53;20929;-71
2021/04/25 12:19:24;;;;;;;4.47;2.40;;;23.90;32.00;;;;;;2338415;53;20964;-69
2021/04/25 12:21:50;;;;;;;5.50;2.70;;;24.10;31.30;;;;;;2364640;53;20916;-68
2021/04/25 12:24:22;;;;;;;6.18;2.20;;;24.10;31.60;;;;;;2608860;52;20938;-68
2021/04/25 12:26:48;;;;;;;5.12;2.33;;;24.20;31.50;;;;;;2339439;53;20960;-68
2021/04/25 12:29:31;;;;;;;5.65;2.22;;;24.20;31.60;;;;;;2366265;53;20971;-70
2021/04/25 12:31:57;;;;;;;4.12;2.10;;;24.30;31.60;;;;;;2335725;54;21025;-69
2021/04/25 12:34:28;;;;;;;6.37;2.50;;;24.40;31.70;;;;;;2334956;54;20921;-70
2021/04/25 12:36:54;;;;;;;7.20;2.67;;;24.40;31.30;;;;;;2318855;54;21532;-70
2021/04/25 12:39:20;;;;;;;7.12;2.70;;;24.50;31.10;;;;;;2335777;54;20905;-69
2021/04/25 12:41:56;;;;;;;4.65;2.50;;;24.50;30.70;;;;;;2567560;53;20968;-70
2021/04/25 12:44:36;;;;;;;4.70;2.47;;;24.50;30.50;;;;;;2365132;53;21105;-68
2021/04/25 12:47:03;;;;;;;6.68;2.80;;;24.50;30.20;;;;;;2594324;52;21079;-71
2021/04/25 12:49:39;;;;;;;4.95;2.78;;;24.50;30.40;;;;;;2345989;54;21368;-69
2021/04/25 12:52:06;;;;;;;5.03;2.90;;;24.60;30.10;;;;;;2342521;54;21470;-71
2021/04/25 12:54:47;;;;;;;7.57;2.47;;;24.60;30.10;;;;;;2365582;53;20985;-68
2021/04/25 12:57:14;;;;;;;4.60;2.60;;;24.60;29.90;;;;;;2352590;53;21079;-68
2021/04/25 12:59:41;;;;;;;6.55;2.60;;;24.60;29.80;;;;;;2357688;53;20957;-68
2021/04/25 13:02:12;;;;;;;4.45;2.70;;;24.50;29.70;;;;;;2346073;53;21052;-69
2021/04/25 13:04:48;;;;;;;5.90;2.40;;;24.40;29.60;;;;;;2332799;53;21815;-70
2021/04/25 13:07:38;;;;;;;5.28;2.30;;;24.30;29.30;;;;;;2354210;54;20932;-68
2021/04/25 13:10:32;;;;;;;5.30;2.47;;;24.20;29.20;;;;;;2342423;54;20998;-71
2021/04/25 13:13:00;;;;;;;4.25;2.25;;;24.10;29.40;;;;;;2294943;54;20951;-70
2021/04/25 13:15:37;;;;;;;4.53;2.10;;;24.10;29.50;;;;;;2310250;54;21005;-68
2021/04/25 13:18:14;;;;;;;3.97;2.10;;;24.10;29.50;;;;;;2339383;53;20977;-69
2021/04/25 13:20:52;;;;;;;4.07;2.22;;;24.00;29.40;;;;;;2342895;54;20943;-70
2021/04/25 13:23:21;;;;;;;6.10;2.40;;;23.90;29.20;;;;;;2363429;53;21816;-69
2021/04/25 13:25:57;;;;;;;4.85;2.50;;;23.90;29.50;;;;;;2344614;53;20928;-69
2021/04/25 13:28:28;;;;;;;4.68;2.00;;;23.90;29.20;;;;;;2344324;53;20954;-69
2021/04/25 13:31:01;;;;;;;4.75;2.53;;;23.90;29.20;;;;;;2340834;54;20905;-72
2021/04/25 13:33:30;;;;;;;4.75;1.95;;;23.90;29.20;;;;;;2368655;53;20980;-68
2021/04/25 13:35:56;;;;;;;4.25;2.15;;;23.80;29.20;;;;;;2342087;53;21849;-69
2021/04/25 13:38:23;;;;;;;4.72;2.55;;;23.80;29.00;;;;;;2344027;53;20963;-70
2021/04/25 13:40:51;;;;;;;5.90;2.00;;;23.80;28.90;;;;;;2338920;53;21788;-69
2021/04/25 13:43:18;;;;;;;4.43;2.00;;;23.70;28.80;;;;;;2348994;53;21040;-70
2021/04/25 13:45:44;;;;;;;5.80;2.15;;;23.60;28.60;;;;;;2340219;53;20919;-68
2021/04/25 13:48:12;;;;;;;4.47;2.08;;;23.60;28.60;;;;;;2559868;53;21870;-70
2021/04/25 13:50:39;;;;;;;5.00;1.95;;;23.50;28.50;;;;;;2335727;54;21380;-69
2021/04/25 13:53:05;;;;;;;3.78;2.00;;;23.50;28.60;;;;;;2347011;53;20954;-67
2021/04/25 13:55:31;;;;;;;3.58;1.90;;;23.50;28.80;;;;;;2325225;53;20933;-70
2021/04/25 13:57:58;;;;;;;4.00;1.60;;;23.50;28.80;;;;;;2330332;53;20925;-69
2021/04/25 14:00:26;;;;;;;3.85;1.98;;;23.50;28.80;;;;;;2550984;53;20972;-71
2021/04/25 14:02:52;;;;;;;4.07;1.70;;;23.50;28.70;;;;;;2312108;54;20934;-69
2021/04/25 14:05:20;;;;;;;5.18;2.08;;;23.60;28.70;;;;;;2358362;53;20940;-71
2021/04/25 14:07:46;;;;;;;3.78;1.90;;;23.60;28.60;;;;;;2366402;53;20924;-70
2021/04/25 14:10:20;;;;;;;3.17;1.45;;;23.60;28.30;;;;;;2366286;53;20920;-70
2021/04/25 14:12:47;;;;;;;4.12;1.80;;;23.70;28.00;;;;;;2365993;53;20944;-70
2021/04/25 14:15:15;;;;;;;3.60;1.67;;;23.70;28.10;;;;;;2366176;53;20944;-69
2021/04/25 14:17:44;;;;;;;4.18;1.70;;;23.70;27.80;;;;;;2376877;53;21018;-68
2021/04/25 14:20:10;;;;;;;3.85;2.03;;;23.60;27.70;;;;;;2359684;53;21027;-70
2021/04/25 14:22:37;;;;;;;4.95;1.70;;;23.60;27.60;;;;;;2465175;52;20928;-71
2021/04/25 14:25:08;;;;;;;4.17;1.90;;;23.50;27.60;;;;;;2356182;53;20995;-68
2021/04/25 14:27:35;;;;;;;3.17;1.40;;;23.50;27.50;;;;;;2366324;54;21224;-70
2021/04/25 14:30:01;;;;;;;3.87;1.65;;;23.50;27.50;;;;;;2358434;54;20996;-68
2021/04/25 14:32:27;;;;;;;3.40;1.67;;;23.50;27.50;;;;;;2335371;54;21407;-69
2021/04/25 14:34:54;;;;;;;3.60;1.52;;;23.50;27.50;;;;;;2366083;54;21044;-71
2021/04/25 14:37:20;;;;;;;4.03;1.80;;;23.50;27.50;;;;;;2365596;53;20968;-70
2021/04/25 14:39:48;;;;;;;3.40;1.77;;;23.50;27.40;;;;;;2427543;52;20952;-70
2021/04/25 14:42:17;;;;;;;3.78;1.55;;;23.40;27.30;;;;;;2358932;53;21079;-68
2021/04/25 14:44:43;;;;;;;3.47;1.65;;;23.40;27.40;;;;;;2584253;53;20951;-69
2021/04/25 14:47:09;;;;;;;3.20;1.37;;;23.40;27.30;;;;;;2350301;53;20939;-70
2021/04/25 14:49:36;;;;;;;5.35;2.65;;;23.40;27.30;;;;;;2365418;53;20916;-68
2021/04/25 14:52:02;;;;;;;3.03;1.27;;;23.40;27.40;;;;;;2366078;54;20911;-69
2021/04/25 14:54:31;;;;;;;2.97;1.40;;;23.40;27.50;;;;;;2365885;54;21003;-67
2021/04/25 14:56:59;;;;;;;3.72;1.73;;;23.40;27.50;;;;;;2359880;54;20948;-68
2021/04/25 14:59:25;;;;;;;3.50;1.67;;;23.40;27.40;;;;;;2547574;53;21047;-68
2021/04/25 15:01:51;;;;;;;3.15;1.35;;;23.40;27.30;;;;;;2357605;53;20975;-73
2021/04/25 15:04:18;;;;;;;5.07;1.70;;;23.40;27.30;;;;;;2365660;53;21023;-67
2021/04/25 15:06:44;;;;;;;4.53;1.30;;;23.40;27.20;;;;;;2366003;54;21007;-69
2021/04/25 15:09:12;;;;;;;4.12;1.80;;;23.40;27.20;;;;;;2529712;52;21108;-70
2021/04/25 15:11:38;;;;;;;3.85;1.55;;;23.40;27.00;;;;;;2362769;53;20938;-68
2021/04/25 15:14:04;;;;;;;5.12;1.95;;;23.30;26.90;;;;;;2348806;53;21011;-69